createdAt,value
2023-05-18T00:00:35.604Z,48.98
2023-05-18T00:03:03.550Z,48.88
2023-05-18T00:05:34.570Z,49.00
2023-05-18T00:08:04.593Z,48.83
2023-05-18T00:10:31.827Z,48.99
2023-05-18T00:12:58.883Z,49.12
2023-05-18T00:15:27.649Z,49.14
2023-05-18T00:17:54.883Z,49.16
2023-05-18T00:20:22.379Z,49.24
2023-05-18T00:22:51.052Z,49.30
2023-05-18T00:25:18.147Z,48.91
2023-05-18T00:27:45.204Z,49.21
2023-05-18T00:30:13.277Z,49.36
2023-05-18T00:32:40.444Z,49.91
2023-05-18T00:35:07.944Z,49.83
2023-05-18T00:37:35.165Z,49.87
2023-05-18T00:40:02.322Z,49.99
2023-05-18T00:42:29.540Z,49.94
2023-05-18T00:44:56.755Z,50.26
2023-05-18T00:47:23.928Z,50.41
2023-05-18T00:49:51.631Z,49.97
2023-05-18T00:52:18.961Z,50.87
2023-05-18T00:54:47.779Z,50.77
2023-05-18T00:57:14.968Z,50.86
2023-05-18T00:59:44.688Z,50.77
2023-05-18T01:02:12.252Z,50.53
2023-05-18T01:04:43.181Z,51.13
2023-05-18T01:07:16.775Z,50.34
2023-05-18T01:09:43.767Z,51.05
2023-05-18T01:12:33.158Z,50.97
2023-05-18T01:15:09.050Z,51.01
2023-05-18T01:18:07.033Z,50.57
2023-05-18T01:20:49.735Z,50.61
2023-05-18T01:23:48.812Z,50.54
2023-05-18T01:26:33.142Z,50.69
2023-05-18T01:29:09.380Z,50.48
2023-05-18T01:31:39.216Z,50.35
2023-05-18T01:34:07.023Z,50.25
2023-05-18T01:36:34.170Z,50.40
2023-05-18T01:39:02.157Z,50.36
2023-05-18T01:41:31.076Z,50.20
2023-05-18T01:44:20.025Z,50.42
2023-05-18T01:47:01.346Z,50.98
2023-05-18T01:49:42.052Z,50.74
2023-05-18T01:52:18.700Z,51.02
2023-05-18T01:54:52.586Z,51.06
2023-05-18T01:57:23.953Z,50.86
2023-05-18T01:59:51.765Z,50.98
2023-05-18T02:02:19.362Z,50.70
2023-05-18T02:04:46.641Z,50.57
2023-05-18T02:07:16.070Z,50.31
2023-05-18T02:09:44.557Z,50.43
2023-05-18T02:12:14.796Z,50.60
2023-05-18T02:14:42.035Z,50.91
2023-05-18T02:17:09.283Z,50.79
2023-05-18T02:19:39.521Z,51.04
2023-05-18T02:22:07.706Z,50.90
2023-05-18T02:24:36.023Z,51.09
2023-05-18T02:27:03.616Z,51.02
2023-05-18T02:29:30.829Z,51.03
2023-05-18T02:31:57.963Z,51.23
2023-05-18T02:34:27.667Z,50.80
2023-05-18T02:36:58.247Z,51.02
2023-05-18T02:39:25.551Z,50.85
2023-05-18T02:41:53.331Z,50.98
2023-05-18T02:44:21.190Z,50.66
2023-05-18T02:46:49.216Z,50.95
2023-05-18T02:49:16.480Z,50.95
2023-05-18T02:51:43.720Z,50.48
2023-05-18T02:54:11.713Z,50.63
2023-05-18T02:56:44.313Z,50.97
2023-05-18T02:59:23.246Z,50.59
2023-05-18T03:01:51.128Z,50.75
2023-05-18T03:04:18.550Z,50.81
2023-05-18T03:06:53.542Z,50.79
2023-05-18T03:09:23.209Z,50.73
2023-05-18T03:11:53.802Z,50.87
2023-05-18T03:14:20.982Z,50.93
2023-05-18T03:16:48.274Z,51.21
2023-05-18T03:19:17.722Z,50.98
2023-05-18T03:21:45.587Z,51.39
2023-05-18T03:24:14.810Z,51.28
2023-05-18T03:26:44.710Z,51.12
2023-05-18T03:29:13.671Z,51.24
2023-05-18T03:31:41.814Z,51.53
2023-05-18T03:34:11.208Z,51.04
2023-05-18T03:36:38.556Z,51.75
2023-05-18T03:39:06.893Z,51.33
2023-05-18T03:41:37.322Z,51.32
2023-05-18T03:44:04.429Z,51.10
2023-05-18T03:46:31.552Z,51.28
2023-05-18T03:49:01.288Z,51.18
2023-05-18T03:51:34.267Z,51.24
2023-05-18T03:54:02.200Z,51.28
2023-05-18T03:56:34.361Z,50.88
2023-05-18T03:59:03.593Z,51.66
2023-05-18T04:01:36.086Z,51.38
2023-05-18T04:04:04.486Z,51.38
2023-05-18T04:06:34.596Z,51.41
2023-05-18T04:09:05.190Z,51.46
2023-05-18T04:11:35.189Z,51.29
2023-05-18T04:14:04.412Z,51.24
2023-05-18T04:16:31.785Z,51.49
2023-05-18T04:19:01.845Z,51.22
2023-05-18T04:21:35.688Z,51.34
2023-05-18T04:24:05.591Z,51.65
2023-05-18T04:26:38.715Z,51.46
2023-05-18T04:29:10.994Z,51.58
2023-05-18T04:31:38.273Z,51.71
2023-05-18T04:34:09.928Z,51.79
2023-05-18T04:36:39.947Z,51.50
2023-05-18T04:39:08.042Z,51.69
2023-05-18T04:41:35.845Z,51.51
2023-05-18T04:44:04.518Z,51.50
2023-05-18T04:46:32.751Z,51.64
2023-05-18T04:49:02.473Z,51.83
2023-05-18T04:51:34.845Z,51.62
2023-05-18T04:54:03.436Z,51.78
2023-05-18T04:56:31.744Z,51.79
2023-05-18T04:59:02.202Z,51.65
2023-05-18T05:01:29.927Z,51.74
2023-05-18T05:03:58.982Z,51.64
2023-05-18T05:06:27.156Z,51.83
2023-05-18T05:08:54.348Z,51.52
2023-05-18T05:11:21.804Z,51.88
2023-05-18T05:13:49.144Z,51.42
2023-05-18T05:16:16.575Z,51.58
2023-05-18T05:18:45.831Z,51.45
2023-05-18T05:21:14.601Z,51.39
2023-05-18T05:23:45.534Z,51.52
2023-05-18T05:26:13.508Z,51.46
2023-05-18T05:28:43.946Z,51.21
2023-05-18T05:31:11.659Z,51.08
2023-05-18T05:33:39.058Z,50.95
2023-05-18T05:36:08.454Z,50.63
2023-05-18T05:38:35.959Z,50.95
2023-05-18T05:41:03.426Z,51.07
2023-05-18T05:43:30.948Z,50.78
2023-05-18T05:45:58.198Z,50.75
2023-05-18T05:48:25.842Z,50.81
2023-05-18T05:50:53.306Z,50.59
2023-05-18T05:53:21.176Z,50.84
2023-05-18T05:55:49.489Z,50.59
2023-05-18T05:58:18.764Z,50.94
2023-05-18T06:00:54.019Z,50.96
2023-05-18T06:03:21.801Z,51.30
2023-05-18T06:05:49.929Z,50.93
2023-05-18T06:08:19.747Z,51.00
2023-05-18T06:10:48.291Z,50.81
2023-05-18T06:13:21.012Z,50.67
2023-05-18T06:15:54.524Z,50.84
2023-05-18T06:18:26.885Z,50.10
2023-05-18T06:20:58.936Z,50.03
2023-05-18T06:23:29.369Z,49.92
2023-05-18T06:26:07.083Z,50.34
2023-05-18T06:28:58.516Z,50.10
2023-05-18T06:31:46.580Z,50.17
2023-05-18T06:34:23.923Z,49.92
2023-05-18T06:36:54.058Z,49.57
2023-05-18T06:39:32.071Z,49.63
2023-05-18T06:42:02.559Z,49.82
2023-05-18T06:44:39.425Z,49.69
2023-05-18T06:47:32.866Z,49.56
2023-05-18T06:50:17.596Z,49.24
2023-05-18T06:52:49.986Z,48.96
2023-05-18T06:55:23.337Z,48.58
2023-05-18T06:58:11.523Z,48.82
2023-05-18T07:00:49.735Z,48.22
2023-05-18T07:03:30.223Z,46.86
2023-05-18T07:06:08.618Z,47.28
2023-05-18T07:08:45.203Z,46.87
2023-05-18T07:11:23.046Z,45.97
2023-05-18T07:14:03.246Z,45.73
2023-05-18T07:16:45.339Z,45.19
2023-05-18T07:19:27.044Z,45.03
2023-05-18T07:22:07.920Z,44.93
2023-05-18T07:24:48.831Z,44.45
2023-05-18T07:27:29.755Z,43.54
2023-05-18T07:30:32.088Z,42.52
2023-05-18T07:33:15.123Z,41.38
2023-05-18T07:36:00.474Z,41.70
2023-05-18T07:38:55.175Z,41.05
2023-05-18T07:41:38.826Z,41.97
2023-05-18T07:44:24.657Z,40.46
2023-05-18T07:46:59.525Z,40.83
2023-05-18T07:49:42.858Z,40.22
2023-05-18T07:52:13.384Z,41.62
2023-05-18T07:54:47.928Z,41.19
2023-05-18T07:57:25.434Z,41.21
2023-05-18T08:00:14.134Z,40.60
2023-05-18T08:02:47.301Z,39.68
2023-05-18T08:05:34.388Z,39.02
2023-05-18T08:08:06.795Z,39.36
2023-05-18T08:10:39.246Z,39.47
2023-05-18T08:13:07.587Z,38.99
2023-05-18T08:15:36.082Z,38.93
2023-05-18T08:18:04.560Z,39.09
2023-05-18T08:20:44.116Z,39.17
2023-05-18T08:23:23.626Z,37.75
2023-05-18T08:25:51.692Z,39.77
2023-05-18T08:28:25.530Z,38.98
2023-05-18T08:31:05.615Z,38.26
2023-05-18T08:33:39.644Z,38.58
2023-05-18T08:36:08.281Z,39.05
2023-05-18T08:38:35.888Z,40.52
2023-05-18T08:41:13.237Z,40.50
2023-05-18T08:43:47.175Z,39.77
2023-05-18T08:46:44.450Z,39.07
2023-05-18T08:49:31.053Z,39.32
2023-05-18T08:52:05.849Z,37.64
2023-05-18T08:54:35.922Z,36.79
2023-05-18T08:57:13.862Z,36.17
2023-05-18T08:59:43.368Z,35.95
2023-05-18T09:02:15.508Z,34.95
2023-05-18T09:04:45.118Z,35.08
2023-05-18T09:07:13.601Z,35.17
2023-05-18T09:09:41.797Z,34.53
2023-05-18T09:12:10.153Z,34.23
2023-05-18T09:14:38.343Z,33.74
2023-05-18T09:17:05.662Z,33.42
2023-05-18T09:19:48.041Z,32.16
2023-05-18T09:22:18.931Z,33.22
2023-05-18T09:24:52.670Z,33.19
2023-05-18T09:30:17.078Z,32.29
2023-05-18T09:32:48.177Z,31.80
2023-05-18T09:35:19.153Z,31.87
2023-05-18T09:37:46.676Z,32.09
2023-05-18T09:40:14.444Z,32.16
2023-05-18T09:42:44.869Z,31.84
2023-05-18T09:45:38.306Z,31.74
2023-05-18T09:48:09.494Z,32.51
2023-05-18T09:50:37.848Z,33.09
2023-05-18T09:53:17.814Z,31.85
2023-05-18T09:55:50.073Z,32.71
2023-05-18T09:58:19.444Z,31.65
2023-05-18T10:00:52.128Z,31.59
2023-05-18T10:03:24.261Z,31.50
2023-05-18T10:05:52.277Z,31.38
2023-05-18T10:08:21.067Z,31.18
2023-05-18T10:10:50.457Z,30.86
2023-05-18T10:13:26.340Z,30.85
2023-05-18T10:16:00.147Z,31.12
2023-05-18T10:18:39.127Z,31.14
2023-05-18T10:21:19.115Z,30.84
2023-05-18T10:23:51.267Z,31.98
2023-05-18T10:26:27.925Z,31.13
2023-05-18T10:29:05.159Z,31.52
2023-05-18T10:31:38.962Z,30.99
2023-05-18T10:34:11.320Z,30.85
2023-05-18T10:36:43.225Z,29.83
2023-05-18T10:39:13.029Z,29.65
2023-05-18T10:41:49.141Z,29.25
2023-05-18T10:44:16.738Z,29.82
2023-05-18T10:46:46.833Z,29.16
2023-05-18T10:49:24.619Z,29.74
2023-05-18T10:51:56.689Z,30.33
2023-05-18T10:54:36.329Z,28.70
2023-05-18T10:57:07.468Z,29.00
2023-05-18T10:59:42.595Z,29.32
2023-05-18T11:02:17.101Z,29.64
2023-05-18T11:04:48.083Z,30.03
2023-05-18T11:07:16.355Z,31.67
2023-05-18T11:09:45.040Z,31.72
2023-05-18T11:12:22.980Z,32.71
2023-05-18T11:14:56.884Z,32.49
2023-05-18T11:17:30.143Z,32.57
2023-05-18T11:20:13.263Z,32.79
2023-05-18T11:22:49.500Z,33.09
2023-05-18T11:25:31.274Z,33.61
2023-05-18T11:28:02.831Z,32.62
2023-05-18T11:30:53.011Z,32.07
2023-05-18T11:33:36.144Z,32.35
2023-05-18T11:36:09.736Z,33.61
2023-05-18T11:39:00.044Z,33.38
2023-05-18T11:41:52.564Z,35.07
2023-05-18T11:44:30.269Z,34.57
2023-05-18T11:47:07.172Z,34.05
2023-05-18T11:49:53.948Z,34.46
2023-05-18T11:52:37.271Z,34.63
2023-05-18T11:55:20.056Z,34.41
2023-05-18T11:57:59.446Z,33.61
2023-05-18T12:00:47.728Z,33.69
2023-05-18T12:03:24.256Z,34.48
2023-05-18T12:06:04.828Z,34.78
2023-05-18T12:08:53.550Z,34.54
2023-05-18T12:11:35.342Z,35.44
2023-05-18T12:14:12.237Z,36.50
2023-05-18T12:16:49.374Z,36.47
2023-05-18T12:19:23.879Z,36.08
2023-05-18T12:22:06.852Z,36.10
2023-05-18T12:24:49.132Z,35.92
2023-05-18T12:27:33.764Z,36.86
2023-05-18T12:30:07.749Z,37.09
2023-05-18T12:32:39.391Z,37.05
2023-05-18T12:35:21.241Z,37.64
2023-05-18T12:38:02.013Z,37.88
2023-05-18T12:40:49.168Z,38.90
2023-05-18T12:43:26.199Z,38.26
2023-05-18T12:46:14.813Z,38.64
2023-05-18T12:49:07.346Z,39.16
2023-05-18T12:51:44.189Z,38.92
2023-05-18T12:54:19.939Z,39.60
2023-05-18T12:57:13.423Z,39.07
2023-05-18T12:59:57.687Z,39.65
2023-05-18T13:02:38.572Z,38.60
2023-05-18T13:05:18.572Z,38.90
2023-05-18T13:07:50.352Z,38.68
2023-05-18T13:10:28.462Z,39.03
2023-05-18T13:13:05.230Z,38.74
2023-05-18T13:15:49.575Z,38.76
2023-05-18T13:18:22.462Z,38.50
2023-05-18T13:20:57.812Z,38.20
2023-05-18T13:23:35.069Z,37.44
2023-05-18T13:26:03.234Z,37.71
2023-05-18T13:28:46.344Z,37.97
2023-05-18T13:31:24.754Z,38.44
2023-05-18T13:34:03.853Z,38.49
2023-05-18T13:36:36.951Z,37.97
2023-05-18T13:39:27.925Z,38.19
2023-05-18T13:45:22.196Z,37.37
2023-05-18T13:48:01.515Z,37.62
2023-05-18T13:50:48.043Z,37.06
2023-05-18T13:53:23.572Z,37.39
2023-05-18T13:55:54.422Z,37.47
2023-05-18T13:58:47.784Z,37.15
2023-05-18T14:01:26.149Z,37.53
2023-05-18T14:04:07.857Z,36.82
2023-05-18T14:06:40.955Z,36.81
2023-05-18T14:09:23.523Z,37.22
2023-05-18T14:12:02.202Z,36.82
2023-05-18T14:14:41.325Z,37.13
2023-05-18T14:17:23.578Z,37.31
2023-05-18T14:20:00.111Z,37.21
2023-05-18T14:22:28.614Z,37.68
2023-05-18T14:25:04.034Z,38.16
2023-05-18T14:27:48.828Z,38.08
2023-05-18T14:30:22.934Z,37.45
2023-05-18T14:32:56.587Z,38.12
2023-05-18T14:35:24.520Z,37.99
2023-05-18T14:37:55.181Z,38.01
2023-05-18T14:40:25.020Z,37.98
2023-05-18T14:43:01.564Z,37.68
2023-05-18T14:45:35.414Z,37.70
2023-05-18T14:48:11.264Z,37.77
2023-05-18T14:50:43.784Z,37.74
2023-05-18T14:53:24.621Z,38.31
2023-05-18T14:56:08.739Z,37.81
2023-05-18T14:58:39.208Z,38.40
2023-05-18T15:01:17.131Z,38.19
2023-05-18T15:03:49.411Z,38.14
2023-05-18T15:06:20.198Z,37.82
2023-05-18T15:08:51.920Z,38.01
2023-05-18T15:11:25.377Z,38.35
2023-05-18T15:13:57.060Z,39.53
2023-05-18T15:16:28.995Z,38.86
2023-05-18T15:19:03.879Z,38.76
2023-05-18T15:21:49.825Z,38.65
2023-05-18T15:24:17.690Z,38.40
2023-05-18T15:26:54.131Z,38.71
2023-05-18T15:29:32.173Z,37.93
2023-05-18T15:31:59.768Z,38.53
2023-05-18T15:34:33.825Z,38.11
2023-05-18T15:37:03.920Z,38.15
2023-05-18T15:39:34.115Z,38.49
2023-05-18T15:42:18.029Z,38.33
2023-05-18T15:48:15.616Z,38.75
2023-05-18T15:51:05.892Z,38.98
2023-05-18T15:53:41.419Z,38.50
2023-05-18T15:56:21.692Z,38.40
2023-05-18T15:58:55.774Z,38.34
2023-05-18T16:01:23.804Z,38.43
2023-05-18T16:03:53.327Z,38.64
2023-05-18T16:06:20.943Z,39.11
2023-05-18T16:08:56.175Z,38.65
2023-05-18T16:11:33.554Z,39.15
2023-05-18T16:14:20.827Z,39.00
2023-05-18T16:16:57.643Z,39.16
2023-05-18T16:19:39.891Z,39.09
2023-05-18T16:22:17.118Z,39.67
2023-05-18T16:24:48.763Z,39.40
2023-05-18T16:27:29.205Z,39.71
2023-05-18T16:30:09.495Z,39.96
2023-05-18T16:32:44.207Z,39.79
2023-05-18T16:35:14.547Z,40.16
2023-05-18T16:38:04.126Z,39.49
2023-05-18T16:40:39.062Z,39.44
2023-05-18T16:43:11.397Z,39.70
2023-05-18T16:45:47.481Z,39.31
2023-05-18T16:48:20.526Z,39.52
2023-05-18T16:50:50.064Z,40.33
2023-05-18T16:53:28.951Z,39.86
2023-05-18T16:55:58.589Z,39.66
2023-05-18T16:58:37.563Z,40.16
2023-05-18T17:01:28.010Z,39.94
2023-05-18T17:04:06.182Z,40.03
2023-05-18T17:06:47.495Z,39.51
2023-05-18T17:09:47.657Z,40.02
2023-05-18T17:12:36.613Z,39.54
2023-05-18T17:18:24.426Z,40.42
2023-05-18T17:21:06.452Z,39.65
2023-05-18T17:23:41.925Z,40.01
2023-05-18T17:26:12.516Z,41.09
2023-05-18T17:28:54.049Z,40.58
2023-05-18T17:31:22.220Z,40.47
2023-05-18T17:33:57.756Z,41.17
2023-05-18T17:36:50.448Z,40.48
2023-05-18T17:39:39.773Z,41.03
2023-05-18T17:42:27.815Z,40.83
2023-05-18T17:44:58.187Z,40.25
2023-05-18T17:47:35.028Z,39.99
2023-05-18T17:50:07.065Z,40.68
2023-05-18T17:52:37.173Z,40.62
2023-05-18T17:55:17.718Z,40.76
2023-05-18T17:57:49.374Z,40.78
2023-05-18T18:00:25.283Z,39.96
2023-05-18T18:02:58.282Z,40.27
2023-05-18T18:05:28.739Z,40.29
2023-05-18T18:07:58.703Z,40.28
2023-05-18T18:10:35.058Z,40.57
2023-05-18T18:13:09.506Z,41.19
2023-05-18T18:15:37.817Z,40.79
2023-05-18T18:18:10.417Z,40.94
2023-05-18T18:20:40.973Z,40.85
2023-05-18T18:23:16.267Z,40.45
2023-05-18T18:25:45.062Z,40.76
2023-05-18T18:28:33.514Z,40.26
2023-05-18T18:31:21.134Z,40.99
2023-05-18T18:33:59.226Z,40.58
2023-05-18T18:36:31.986Z,41.41
2023-05-18T18:39:01.802Z,41.06
2023-05-18T18:41:31.999Z,40.82
2023-05-18T18:44:02.999Z,40.68
2023-05-18T18:46:41.220Z,40.48
2023-05-18T18:49:11.555Z,40.70
2023-05-18T18:51:50.671Z,40.43
2023-05-18T18:54:24.088Z,41.12
2023-05-18T18:56:57.365Z,41.28
2023-05-18T18:59:27.799Z,40.65
2023-05-18T19:02:03.774Z,40.95
2023-05-18T19:04:35.415Z,40.64
2023-05-18T19:07:05.967Z,41.14
2023-05-18T19:12:30.941Z,40.98
2023-05-18T19:15:02.109Z,40.83
2023-05-18T19:17:30.224Z,40.64
2023-05-18T19:20:07.906Z,42.24
2023-05-18T19:22:37.010Z,41.75
2023-05-18T19:25:07.379Z,41.53
2023-05-18T19:27:35.178Z,41.30
2023-05-18T19:30:10.196Z,41.04
2023-05-18T19:32:37.767Z,41.48
2023-05-18T19:35:13.167Z,41.94
2023-05-18T19:37:42.986Z,41.60
2023-05-18T19:40:21.021Z,41.99
2023-05-18T19:43:00.062Z,41.59
2023-05-18T19:45:36.197Z,42.51
2023-05-18T19:48:12.994Z,42.09
2023-05-18T19:50:45.120Z,41.93
2023-05-18T19:53:29.400Z,42.25
2023-05-18T19:56:13.408Z,42.31
2023-05-18T19:58:48.892Z,42.34
2023-05-18T20:01:38.333Z,42.46
2023-05-18T20:04:13.052Z,42.26
2023-05-18T20:06:54.863Z,42.55
2023-05-18T20:09:29.221Z,43.57
2023-05-18T20:12:03.755Z,42.95
2023-05-18T20:14:39.617Z,42.91
2023-05-18T20:17:35.635Z,42.87
2023-05-18T20:20:42.279Z,42.77
2023-05-18T20:23:14.887Z,42.91
2023-05-18T20:26:09.231Z,44.12
2023-05-18T20:29:06.488Z,44.08
2023-05-18T20:31:51.511Z,43.33
2023-05-18T20:34:36.877Z,43.54
2023-05-18T20:37:16.375Z,43.21
2023-05-18T20:39:58.937Z,43.13
2023-05-18T20:43:01.640Z,43.61
2023-05-18T20:46:25.859Z,44.57
2023-05-18T20:49:13.848Z,44.72
2023-05-18T20:52:03.013Z,44.25
2023-05-18T20:54:58.275Z,44.95
2023-05-18T20:57:56.902Z,45.02
2023-05-18T21:00:29.909Z,45.88
2023-05-18T21:03:29.267Z,45.98
2023-05-18T21:06:31.563Z,45.82
2023-05-18T21:08:59.471Z,44.78
2023-05-18T21:12:09.360Z,45.45
2023-05-18T21:15:00.709Z,45.29
2023-05-18T21:18:02.693Z,45.63
2023-05-18T21:20:58.740Z,45.46
2023-05-18T21:23:54.238Z,45.13
2023-05-18T21:26:33.043Z,45.03
2023-05-18T21:29:00.524Z,45.21
2023-05-18T21:31:43.476Z,45.63
2023-05-18T21:34:58.182Z,45.48
2023-05-18T21:37:51.836Z,45.80
2023-05-18T21:40:44.926Z,45.75
2023-05-18T21:43:18.083Z,45.37
2023-05-18T21:46:20.047Z,46.18
2023-05-18T21:49:28.880Z,46.04
2023-05-18T21:52:24.612Z,45.98
2023-05-18T21:55:07.608Z,46.08
2023-05-18T21:57:54.632Z,46.07
2023-05-18T22:00:44.412Z,46.13
2023-05-18T22:03:22.319Z,45.93
2023-05-18T22:06:24.986Z,46.16
2023-05-18T22:09:12.928Z,45.62
2023-05-18T22:12:08.812Z,45.75
2023-05-18T22:14:48.944Z,46.06
2023-05-18T22:17:34.424Z,45.64
2023-05-18T22:20:24.961Z,45.81
2023-05-18T22:23:04.831Z,46.14
2023-05-18T22:25:53.440Z,46.11
2023-05-18T22:28:50.287Z,46.19
2023-05-18T22:31:27.966Z,46.28
2023-05-18T22:34:27.966Z,45.51
2023-05-18T22:37:06.512Z,45.44
2023-05-18T22:39:43.952Z,45.55
2023-05-18T22:42:19.382Z,45.77
2023-05-18T22:44:54.940Z,46.32
2023-05-18T22:47:33.422Z,46.64
2023-05-18T22:50:05.111Z,45.81
2023-05-18T22:52:45.462Z,46.25
2023-05-18T22:55:21.495Z,46.14
2023-05-18T22:58:00.278Z,46.48
2023-05-18T23:00:36.026Z,46.40
2023-05-18T23:03:07.198Z,46.60
2023-05-18T23:06:16.810Z,47.21
2023-05-18T23:08:56.265Z,46.84
2023-05-18T23:11:35.646Z,46.84
2023-05-18T23:14:20.575Z,47.01
2023-05-18T23:16:59.795Z,47.37
2023-05-18T23:19:35.658Z,46.77
2023-05-18T23:22:06.681Z,46.48
2023-05-18T23:24:46.440Z,46.19
2023-05-18T23:27:24.383Z,46.51
2023-05-18T23:30:04.673Z,46.20
2023-05-18T23:32:45.627Z,45.82
2023-05-18T23:35:23.913Z,46.39
2023-05-18T23:38:09.169Z,46.26
2023-05-18T23:41:00.249Z,45.93
2023-05-18T23:43:46.169Z,45.86
2023-05-18T23:46:26.788Z,45.96
2023-05-18T23:49:11.458Z,45.70
2023-05-18T23:52:02.598Z,45.73
2023-05-18T23:54:44.191Z,45.97
2023-05-18T23:57:27.730Z,45.75
